Statendam — PHSG — position and weather

sailwx.info

Track history (hours):
 
Tides and Currents Weather Stations Pressure Air Temp Water Temp Dewpoint Dewpoint Depression Visibility Wind Speed Wind Dir Waves Ship Positions

Statendam

Operator: Holland America Line

Last reported at 2014-Sep-01 06:00 UTC. Time now 2014-Sep-02 02:13 UTC.
Position N 59°48' W 149°24'.

Type: Passenger vessel. MMSI: 244078000.

Wind from 340 at 16 knots

Waves 0.5 meters (2 feet), 4 second period

Barometer 1007.1 mb
Air temperature 14.0 ° C
Visibility: greater than 10.8 NM
Dewpoint 8.0 ° C
Water temperature 12.0 ° C

Date/timePositionNaut miles runAvg speedWind from/ knotsBaromVisibWave heightAir tempDewpointWater temp
2014-Sep-01 06:00N 59°48' W 149°24'231 6.2 340 / 161007.110.8 0.514.0 8.012.0
2014-Aug-30 17:00N 59°00' W 142°00'17512.6 260 / 91001.010.8 0.513.513.013.0
2014-Aug-30 03:04N 58°10' W 136°37'1610.9
2014-Aug-30 01:33N 58°19' W 136°11'10 9.7
2014-Aug-30 00:33N 58°27' W 136°02'1413.6
2014-Aug-29 23:33N 58°40' W 136°10'1514.6
2014-Aug-29 22:33N 58°50' W 136°31'2 0.3
2014-Aug-29 17:08N 58°49' W 136°29'915.3
2014-Aug-29 16:33N 58°44' W 136°15'1414.4
2014-Aug-29 15:33N 58°30' W 136°04'1110.8
2014-Aug-29 14:33N 58°20' W 135°57'1111.1
2014-Aug-29 13:33N 58°17' W 135°37'1010.2
2014-Aug-29 12:33N 58°13' W 135°19'  
2014-Aug-26 21:00N 55°18' W 131°36'220 9.2 260 / 51018.010.8 17.015.312.0
2014-Aug-25 21:00N 52°00' W 128°54'4712.0 230 / 101018.0 0.3 0.517.017.014.0
2014-Aug-25 17:03N 51°17' W 128°22'713.0
2014-Aug-25 16:32N 51°12' W 128°16'1514.0
2014-Aug-25 15:30N 51°04' W 127°57'1212.9
2014-Aug-25 14:34N 50°56' W 127°42'1515.0
2014-Aug-25 13:34N 50°49' W 127°21'1515.0
2014-Aug-25 12:33N 50°43' W 126°59'1814.2
2014-Aug-25 11:17N 50°31' W 126°37'1216.0
2014-Aug-25 10:33N 50°30' W 126°19'1815.4
2014-Aug-25 09:22N 50°23' W 125°53'4912.5
2014-Aug-25 05:27N 49°49' W 124°57'1515.5
2014-Aug-25 04:28N 49°38' W 124°41'1615.7
2014-Aug-25 03:26N 49°27' W 124°23'1415.6
2014-Aug-25 02:33N 49°23' W 124°03'1615.7
2014-Aug-25 01:34N 49°21' W 123°39'1515.3
2014-Aug-25 00:33N 49°19' W 123°16'6 5.8
2014-Aug-24 23:31N 49°17' W 123°07'0 0.0
2014-Aug-24 22:31N 49°17' W 123°07'0 0.0
2014-Aug-24 21:31N 49°17' W 123°07'0 0.0
2014-Aug-24 20:31N 49°17' W 123°07'510.1
2014-Aug-24 20:00N 49°12' W 123°06'511.4 300 / 81016.010.8 0.519.918.113.0
2014-Aug-24 19:31N 49°17' W 123°07'0 0.0
2014-Aug-24 18:31N 49°17' W 123°07'0 0.0
2014-Aug-24 17:31N 49°17' W 123°07'0 0.0
2014-Aug-24 16:31N 49°17' W 123°07'0 0.0
2014-Aug-24 15:31N 49°17' W 123°07'0 0.0
2014-Aug-24 14:31N 49°17' W 123°07'1 1.2
2014-Aug-24 13:33N 49°18' W 123°07'1414.4
2014-Aug-24 12:33N 49°19' W 123°29'1717.1
2014-Aug-24 11:33N 49°22' W 123°55'1717.3
2014-Aug-24 10:33N 49°26' W 124°21'1917.3
2014-Aug-24 09:28N 49°39' W 124°43'1617.3
2014-Aug-24 08:33N 49°50' W 124°59'5911.8
2014-Aug-24 03:33N 50°29' W 126°10'1211.4
2014-Aug-24 02:32N 50°30' W 126°28'1212.1
2014-Aug-24 01:33N 50°36' W 126°44'1615.1
2014-Aug-24 00:31N 50°44' W 127°05'1515.2
2014-Aug-23 23:33N 50°50' W 127°26'1514.6
2014-Aug-23 22:33N 50°58' W 127°45'610.2
2014-Aug-23 22:00N 51°00' W 127°54'921.0 280 / 81022.6 5.4 1.018.118.115.0
2014-Aug-23 21:33N 51°07' W 128°03'1515.2
2014-Aug-23 20:33N 51°18' W 128°21'1715.5
2014-Aug-23 19:29N 51°33' W 128°30'25111.1
2014-Aug-22 21:00N 55°18' W 131°36'   260 / 21023.027.0 0.523.517.612.0
Track history (hours):
 
Tides and Currents Weather Stations Pressure Air Temp Water Temp Dewpoint Dewpoint Depression Visibility Wind Speed Wind Dir Waves Ship Positions

Statendam

Operator: Holland America Line

Last reported at 2014-Sep-01 06:00 UTC. Time now 2014-Sep-02 02:13 UTC.
Position N 59°48' W 149°24'.

Type: Passenger vessel. MMSI: 244078000.

Wind from 340 at 16 knots

Waves 0.5 meters (2 feet), 4 second period

Barometer 1007.1 mb
Air temperature 14.0 ° C
Visibility: greater than 10.8 NM
Dewpoint 8.0 ° C
Water temperature 12.0 ° C

Date/timePositionNaut miles runAvg speedWind from/ knotsBaromVisibWave heightAir tempDewpointWater temp
2014-Sep-01 06:00N 59°48' W 149°24'231 6.2 340 / 161007.110.8 0.514.0 8.012.0
2014-Aug-30 17:00N 59°00' W 142°00'17512.6 260 / 91001.010.8 0.513.513.013.0
2014-Aug-30 03:04N 58°10' W 136°37'1610.9
2014-Aug-30 01:33N 58°19' W 136°11'10 9.7
2014-Aug-30 00:33N 58°27' W 136°02'1413.6
2014-Aug-29 23:33N 58°40' W 136°10'1514.6
2014-Aug-29 22:33N 58°50' W 136°31'2 0.3
2014-Aug-29 17:08N 58°49' W 136°29'915.3
2014-Aug-29 16:33N 58°44' W 136°15'1414.4
2014-Aug-29 15:33N 58°30' W 136°04'1110.8
2014-Aug-29 14:33N 58°20' W 135°57'1111.1
2014-Aug-29 13:33N 58°17' W 135°37'1010.2
2014-Aug-29 12:33N 58°13' W 135°19'  
2014-Aug-26 21:00N 55°18' W 131°36'220 9.2 260 / 51018.010.8 17.015.312.0
2014-Aug-25 21:00N 52°00' W 128°54'4712.0 230 / 101018.0 0.3 0.517.017.014.0
2014-Aug-25 17:03N 51°17' W 128°22'713.0
2014-Aug-25 16:32N 51°12' W 128°16'1514.0
2014-Aug-25 15:30N 51°04' W 127°57'1212.9
2014-Aug-25 14:34N 50°56' W 127°42'1515.0
2014-Aug-25 13:34N 50°49' W 127°21'1515.0
2014-Aug-25 12:33N 50°43' W 126°59'1814.2
2014-Aug-25 11:17N 50°31' W 126°37'1216.0
2014-Aug-25 10:33N 50°30' W 126°19'1815.4
2014-Aug-25 09:22N 50°23' W 125°53'4912.5
2014-Aug-25 05:27N 49°49' W 124°57'1515.5
2014-Aug-25 04:28N 49°38' W 124°41'1615.7
2014-Aug-25 03:26N 49°27' W 124°23'1415.6
2014-Aug-25 02:33N 49°23' W 124°03'1615.7
2014-Aug-25 01:34N 49°21' W 123°39'1515.3
2014-Aug-25 00:33N 49°19' W 123°16'6 5.8
2014-Aug-24 23:31N 49°17' W 123°07'0 0.0
2014-Aug-24 22:31N 49°17' W 123°07'0 0.0
2014-Aug-24 21:31N 49°17' W 123°07'0 0.0
2014-Aug-24 20:31N 49°17' W 123°07'510.1
2014-Aug-24 20:00N 49°12' W 123°06'511.4 300 / 81016.010.8 0.519.918.113.0
2014-Aug-24 19:31N 49°17' W 123°07'0 0.0
2014-Aug-24 18:31N 49°17' W 123°07'0 0.0
2014-Aug-24 17:31N 49°17' W 123°07'0 0.0
2014-Aug-24 16:31N 49°17' W 123°07'0 0.0
2014-Aug-24 15:31N 49°17' W 123°07'0 0.0
2014-Aug-24 14:31N 49°17' W 123°07'1 1.2
2014-Aug-24 13:33N 49°18' W 123°07'1414.4
2014-Aug-24 12:33N 49°19' W 123°29'1717.1
2014-Aug-24 11:33N 49°22' W 123°55'1717.3
2014-Aug-24 10:33N 49°26' W 124°21'1917.3
2014-Aug-24 09:28N 49°39' W 124°43'1617.3
2014-Aug-24 08:33N 49°50' W 124°59'5911.8
2014-Aug-24 03:33N 50°29' W 126°10'1211.4
2014-Aug-24 02:32N 50°30' W 126°28'1212.1
2014-Aug-24 01:33N 50°36' W 126°44'1615.1
2014-Aug-24 00:31N 50°44' W 127°05'1515.2
2014-Aug-23 23:33N 50°50' W 127°26'1514.6
2014-Aug-23 22:33N 50°58' W 127°45'610.2
2014-Aug-23 22:00N 51°00' W 127°54'921.0 280 / 81022.6 5.4 1.018.118.115.0
2014-Aug-23 21:33N 51°07' W 128°03'1515.2
2014-Aug-23 20:33N 51°18' W 128°21'1715.5
2014-Aug-23 19:29N 51°33' W 128°30'25111.1
2014-Aug-22 21:00N 55°18' W 131°36'   260 / 21023.027.0 0.523.517.612.0

Dump ship's entire track history